WetterOnline ( https://www.wetteronline.de )

Wetter aktuell Admannshagen-Bargeshagen

Aktuelles Wetter: Rostock-Warnemünde (10m)

6-stündlich | Neueste Meldungen
Ortszeit Temperatur Wetter
Mi, 25.11. 1:00 5.3° C bedeckt
Di, 24.11. 19:00 8.0° C bedeckt
Di, 24.11. 13:00 7.5° C bedeckt
Di, 24.11. 7:00 4.9° C wolkig
Di, 24.11. 1:00 5.9° C bedeckt
Mo, 23.11. 19:00 7.4° C wolkig
Mo, 23.11. 13:00 8.6° C leicht bewölkt
Mo, 23.11. 7:00 7.1° C bewölkt
Ortszeit Temperatur Wetter
Mi, 25.11. 3:30 4.4° C wolkig
Mi, 25.11. 3:20 4.4° C wolkig
Mi, 25.11. 3:10 4.4° C wolkig
Mi, 25.11. 3:00 4.5° C wolkig
Mi, 25.11. 2:50 4.5° C wolkig
Mi, 25.11. 2:40 4.6° C bewölkt
Mi, 25.11. 2:30 4.6° C wolkig
Mi, 25.11. 2:00 4.8° C wolkig
Ortszeit Relative Feuchte Sichtweite
Mi, 25.11. 1:00 91% 13 km
Di, 24.11. 19:00 81% 27 km
Di, 24.11. 13:00 82% 23 km
Di, 24.11. 7:00 82% 22 km
Di, 24.11. 1:00 85% 30 km
Mo, 23.11. 19:00 85% 30 km
Mo, 23.11. 13:00 79% 40 km
Mo, 23.11. 7:00 81% 40 km
Ortszeit Relative Feuchte Sichtweite
Mi, 25.11. 3:30 93% 9 km
Mi, 25.11. 3:20 93% -
Mi, 25.11. 3:10 93% -
Mi, 25.11. 3:00 93% 11 km
Mi, 25.11. 2:50 93% -
Mi, 25.11. 2:40 93% -
Mi, 25.11. 2:30 93% 11 km
Mi, 25.11. 2:00 92% 12 km
Ortszeit Niederschlagsmenge Niederschlagsart
Mi, 25.11. 1:00 0.0 l/m2 in 6 Std. -
Di, 24.11. 19:00 0.0 l/m2 in 12 Std. -
Di, 24.11. 13:00 0.0 l/m2 in 6 Std. -
Di, 24.11. 7:00 0.0 l/m2 in 12 Std. -
Di, 24.11. 1:00 0.0 l/m2 in 6 Std. -
Mo, 23.11. 19:00 0.1 l/m2 in 12 Std. -
Mo, 23.11. 13:00 0.1 l/m2 in 6 Std. Regen
Mo, 23.11. 7:00 0.1 l/m2 in 12 Std. Regen
Ortszeit Niederschlagsmenge Niederschlagsart
Mi, 25.11. 3:30 0.0 l/m2 in 1 Std. -
Mi, 25.11. 3:20 keine Meldung -
Mi, 25.11. 3:10 keine Meldung -
Mi, 25.11. 3:00 0.0 l/m2 in 1 Std. -
Mi, 25.11. 2:50 keine Meldung -
Mi, 25.11. 2:40 keine Meldung -
Mi, 25.11. 2:30 0.0 l/m2 in 1 Std. -
Mi, 25.11. 2:00 0.0 l/m2 in 1 Std. -
Ortszeit Stärke Spitze Richtung
km/h Bft. km/h Grad Sektor
Mi, 25.11. 1:00 11 2 32 180° S
Di, 24.11. 19:00 19 3 37 200° S
Di, 24.11. 13:00 20 4 39 210° SW
Di, 24.11. 7:00 17 3 30 200° S
Di, 24.11. 1:00 17 3 31 210° SW
Mo, 23.11. 19:00 13 3 50 230° SW
Mo, 23.11. 13:00 31 5 52 270° W
Mo, 23.11. 7:00 17 3 37 260° W
Ortszeit Stärke Spitze Richtung
km/h Bft. km/h Grad Sektor
Mi, 25.11. 3:30 11 2 18 180° S
Mi, 25.11. 3:20 11 2 - 180° S
Mi, 25.11. 3:10 11 2 - 170° S
Mi, 25.11. 3:00 11 2 18 170° S
Mi, 25.11. 2:50 11 2 - 170° S
Mi, 25.11. 2:40 11 2 - 180° S
Mi, 25.11. 2:30 11 2 18 170° S
Mi, 25.11. 2:00 11 2 22 180° S
Ortszeit Untergrenze Bedeckung Gattung
total tief tief mittel hoch
Mi, 25.11. 1:00 6300 m 8/8 8/8 - - -
Di, 24.11. 19:00 1200 m 8/8 8/8 - - -
Di, 24.11. 13:00 870 m 8/8 8/8 - - -
Di, 24.11. 7:00 5100 m 8/8 2/8 - - -
Di, 24.11. 1:00 4200 m 8/8 8/8 - - -
Mo, 23.11. 19:00 1200 m 6/8 6/8 - - -
Mo, 23.11. 13:00 630 m 3/8 3/8 - - -
Mo, 23.11. 7:00 600 m 7/8 7/8 - - -
Ortszeit Bedeckungsgrad in Achtel und Wolkenuntergrenze
Mi, 25.11. 3:30 8(8100m)
Mi, 25.11. 3:20 8(8100m)
Mi, 25.11. 3:10 8(7800m) 8(9000m)
Mi, 25.11. 3:00 3(6000m) 8(9000m) 8(9000m)
Mi, 25.11. 2:50 3(6000m) 8(9000m) 8(9000m)
Mi, 25.11. 2:40 4(6300m) 8(8700m) 8(9000m)
Mi, 25.11. 2:30 3(6300m) 8(8700m) 8(9000m)
Mi, 25.11. 2:00 2(6300m) 8(9000m)
Ortszeit Luftdruck NN (hPa) Tendenz (hPa in 3 Std.)
Mi, 25.11. 1:00 1020 - 0,8
Di, 24.11. 19:00 1021 - 0,1
Di, 24.11. 13:00 1021 - 1,2
Di, 24.11. 7:00 1022 - 1,1
Di, 24.11. 1:00 1025 - 0,5
Mo, 23.11. 19:00 1025 + 1,1
Mo, 23.11. 13:00 1022 + 1,4
Mo, 23.11. 7:00 1019 0,0
Ortszeit Luftdruck NN (hPa) Tendenz (hPa in 3 Std.)
Mi, 25.11. 3:30 1019 - 0,9
Mi, 25.11. 3:20 1019 keine Meldung
Mi, 25.11. 3:10 1019 keine Meldung
Mi, 25.11. 3:00 1019 - 1,1
Mi, 25.11. 2:50 1019 keine Meldung
Mi, 25.11. 2:40 1019 keine Meldung
Mi, 25.11. 2:30 1019 - 0,9
Mi, 25.11. 2:00 1019 - 0,9
Ortszeit Schneehöhe (cm)
Mi, 25.11. 1:00 0
Di, 24.11. 19:00 0
Di, 24.11. 13:00 0
Di, 24.11. 7:00 0
Di, 24.11. 1:00 0
Mo, 23.11. 19:00 0
Mo, 23.11. 13:00 0
Mo, 23.11. 7:00 0
Ortszeit Schneehöhe (cm)
Mi, 25.11. 3:30 0
Mi, 25.11. 3:20 0
Mi, 25.11. 3:10 0
Mi, 25.11. 3:00 0
Mi, 25.11. 2:50 0
Mi, 25.11. 2:40 0
Mi, 25.11. 2:30 0
Mi, 25.11. 2:00 0
Link zu dieser Seite / Seite empfehlen

Das Wetter in ...